sensor_id;sensor_type;location;lat;lon;timestamp;P1;durP1;ratioP1;P2;durP2;ratioP2
18702;SDS011;9481;48.796;9.210;2023-02-01T00:00:00;4.40;;;2.90;;
18702;SDS011;9481;48.796;9.210;2023-02-01T00:02:25;4.17;;;2.70;;
18702;SDS011;9481;48.796;9.210;2023-02-01T00:04:51;3.63;;;2.60;;
18702;SDS011;9481;48.796;9.210;2023-02-01T00:07:17;4.30;;;2.70;;
18702;SDS011;9481;48.796;9.210;2023-02-01T00:09:42;4.03;;;2.30;;
18702;SDS011;9481;48.796;9.210;2023-02-01T00:12:08;5.37;;;2.90;;
18702;SDS011;9481;48.796;9.210;2023-02-01T00:14:34;3.87;;;2.70;;
18702;SDS011;9481;48.796;9.210;2023-02-01T00:17:04;3.67;;;2.70;;
18702;SDS011;9481;48.796;9.210;2023-02-01T00:19:33;2.87;;;2.43;;
18702;SDS011;9481;48.796;9.210;2023-02-01T00:21:59;3.80;;;2.43;;
18702;SDS011;9481;48.796;9.210;2023-02-01T00:24:25;3.30;;;2.33;;
18702;SDS011;9481;48.796;9.210;2023-02-01T00:26:51;3.43;;;2.40;;
18702;SDS011;9481;48.796;9.210;2023-02-01T00:29:18;3.53;;;2.10;;
18702;SDS011;9481;48.796;9.210;2023-02-01T00:31:45;2.90;;;2.20;;
18702;SDS011;9481;48.796;9.210;2023-02-01T00:34:11;3.03;;;2.30;;
18702;SDS011;9481;48.796;9.210;2023-02-01T00:36:40;3.30;;;2.60;;
18702;SDS011;9481;48.796;9.210;2023-02-01T00:39:07;3.03;;;1.77;;
18702;SDS011;9481;48.796;9.210;2023-02-01T00:41:34;3.20;;;2.00;;
18702;SDS011;9481;48.796;9.210;2023-02-01T00:44:00;4.20;;;2.27;;
18702;SDS011;9481;48.796;9.210;2023-02-01T00:46:26;3.13;;;2.00;;
18702;SDS011;9481;48.796;9.210;2023-02-01T00:48:52;2.73;;;1.80;;
18702;SDS011;9481;48.796;9.210;2023-02-01T00:51:23;2.00;;;1.67;;
18702;SDS011;9481;48.796;9.210;2023-02-01T00:53:52;3.07;;;2.27;;
18702;SDS011;9481;48.796;9.210;2023-02-01T00:56:18;2.33;;;1.70;;
18702;SDS011;9481;48.796;9.210;2023-02-01T00:58:44;2.00;;;1.77;;
18702;SDS011;9481;48.796;9.210;2023-02-01T01:01:20;3.10;;;1.77;;
18702;SDS011;9481;48.796;9.210;2023-02-01T01:03:50;2.10;;;1.83;;
18702;SDS011;9481;48.796;9.210;2023-02-01T01:06:23;1.90;;;1.50;;
18702;SDS011;9481;48.796;9.210;2023-02-01T01:08:55;1.97;;;1.50;;
18702;SDS011;9481;48.796;9.210;2023-02-01T01:11:25;2.17;;;1.97;;
18702;SDS011;9481;48.796;9.210;2023-02-01T01:13:55;3.30;;;2.13;;
18702;SDS011;9481;48.796;9.210;2023-02-01T01:16:23;2.30;;;1.90;;
18702;SDS011;9481;48.796;9.210;2023-02-01T01:18:51;2.17;;;1.70;;
18702;SDS011;9481;48.796;9.210;2023-02-01T01:21:17;2.07;;;1.77;;
18702;SDS011;9481;48.796;9.210;2023-02-01T01:23:44;1.73;;;1.53;;
18702;SDS011;9481;48.796;9.210;2023-02-01T01:26:13;1.93;;;1.40;;
18702;SDS011;9481;48.796;9.210;2023-02-01T01:28:42;2.40;;;1.80;;
18702;SDS011;9481;48.796;9.210;2023-02-01T01:31:09;1.97;;;1.57;;
18702;SDS011;9481;48.796;9.210;2023-02-01T01:33:37;2.00;;;1.73;;
18702;SDS011;9481;48.796;9.210;2023-02-01T01:36:07;1.90;;;1.60;;
18702;SDS011;9481;48.796;9.210;2023-02-01T01:38:37;2.30;;;1.40;;
18702;SDS011;9481;48.796;9.210;2023-02-01T01:41:07;1.97;;;1.60;;
18702;SDS011;9481;48.796;9.210;2023-02-01T01:46:27;1.87;;;1.67;;
18702;SDS011;9481;48.796;9.210;2023-02-01T01:49:18;1.93;;;1.60;;
18702;SDS011;9481;48.796;9.210;2023-02-01T01:51:49;2.50;;;1.87;;
18702;SDS011;9481;48.796;9.210;2023-02-01T01:54:25;2.77;;;1.60;;
18702;SDS011;9481;48.796;9.210;2023-02-01T01:56:59;1.60;;;1.30;;
18702;SDS011;9481;48.796;9.210;2023-02-01T01:59:32;1.60;;;1.30;;
18702;SDS011;9481;48.796;9.210;2023-02-01T02:02:01;2.00;;;1.40;;
18702;SDS011;9481;48.796;9.210;2023-02-01T02:04:27;1.43;;;1.33;;
18702;SDS011;9481;48.796;9.210;2023-02-01T02:06:58;1.60;;;1.40;;
18702;SDS011;9481;48.796;9.210;2023-02-01T02:09:38;2.10;;;1.60;;
18702;SDS011;9481;48.796;9.210;2023-02-01T02:12:04;2.00;;;1.47;;
18702;SDS011;9481;48.796;9.210;2023-02-01T02:14:30;1.90;;;1.43;;
18702;SDS011;9481;48.796;9.210;2023-02-01T02:31:54;1.90;;;1.70;;
18702;SDS011;9481;48.796;9.210;2023-02-01T02:34:37;1.90;;;1.70;;
18702;SDS011;9481;48.796;9.210;2023-02-01T02:38:13;1.93;;;1.50;;
18702;SDS011;9481;48.796;9.210;2023-02-01T02:41:01;1.63;;;1.40;;
18702;SDS011;9481;48.796;9.210;2023-02-01T02:44:13;2.20;;;1.33;;
18702;SDS011;9481;48.796;9.210;2023-02-01T02:47:35;1.73;;;1.57;;
18702;SDS011;9481;48.796;9.210;2023-02-01T02:50:23;1.90;;;1.63;;
18702;SDS011;9481;48.796;9.210;2023-02-01T02:53:37;2.00;;;1.50;;
18702;SDS011;9481;48.796;9.210;2023-02-01T02:56:39;1.50;;;1.40;;
18702;SDS011;9481;48.796;9.210;2023-02-01T02:59:25;2.13;;;1.50;;
18702;SDS011;9481;48.796;9.210;2023-02-01T03:02:12;2.73;;;1.53;;
18702;SDS011;9481;48.796;9.210;2023-02-01T03:04:59;1.70;;;1.47;;
18702;SDS011;9481;48.796;9.210;2023-02-01T03:13:11;2.30;;;1.70;;
18702;SDS011;9481;48.796;9.210;2023-02-01T03:15:59;1.80;;;1.60;;
18702;SDS011;9481;48.796;9.210;2023-02-01T03:19:02;1.87;;;1.77;;
18702;SDS011;9481;48.796;9.210;2023-02-01T03:24:16;2.23;;;1.67;;
18702;SDS011;9481;48.796;9.210;2023-02-01T03:26:58;1.70;;;1.60;;
18702;SDS011;9481;48.796;9.210;2023-02-01T03:29:40;1.83;;;1.70;;
18702;SDS011;9481;48.796;9.210;2023-02-01T03:32:27;1.57;;;1.47;;
18702;SDS011;9481;48.796;9.210;2023-02-01T03:34:53;2.07;;;1.80;;
18702;SDS011;9481;48.796;9.210;2023-02-01T03:37:24;1.70;;;1.60;;
18702;SDS011;9481;48.796;9.210;2023-02-01T03:40:03;2.53;;;1.90;;
18702;SDS011;9481;48.796;9.210;2023-02-01T03:42:40;3.00;;;2.00;;
18702;SDS011;9481;48.796;9.210;2023-02-01T03:45:20;2.40;;;1.90;;
18702;SDS011;9481;48.796;9.210;2023-02-01T03:48:05;2.47;;;2.00;;
18702;SDS011;9481;48.796;9.210;2023-02-01T03:50:33;2.77;;;1.63;;
18702;SDS011;9481;48.796;9.210;2023-02-01T03:53:06;2.07;;;1.63;;
18702;SDS011;9481;48.796;9.210;2023-02-01T03:55:38;2.23;;;1.60;;
18702;SDS011;9481;48.796;9.210;2023-02-01T04:00:53;2.57;;;1.80;;
18702;SDS011;9481;48.796;9.210;2023-02-01T04:03:24;2.17;;;1.80;;
18702;SDS011;9481;48.796;9.210;2023-02-01T04:05:52;1.70;;;1.60;;
18702;SDS011;9481;48.796;9.210;2023-02-01T04:08:19;2.00;;;1.70;;
18702;SDS011;9481;48.796;9.210;2023-02-01T04:10:45;2.47;;;2.00;;
18702;SDS011;9481;48.796;9.210;2023-02-01T04:13:12;2.40;;;1.80;;
18702;SDS011;9481;48.796;9.210;2023-02-01T04:15:38;2.87;;;1.87;;
18702;SDS011;9481;48.796;9.210;2023-02-01T04:18:03;3.27;;;1.60;;
18702;SDS011;9481;48.796;9.210;2023-02-01T04:20:30;2.70;;;1.90;;
18702;SDS011;9481;48.796;9.210;2023-02-01T04:22:55;2.23;;;1.97;;
18702;SDS011;9481;48.796;9.210;2023-02-01T04:25:21;2.23;;;1.90;;
18702;SDS011;9481;48.796;9.210;2023-02-01T04:27:47;1.97;;;1.53;;
18702;SDS011;9481;48.796;9.210;2023-02-01T04:30:13;2.33;;;1.83;;
18702;SDS011;9481;48.796;9.210;2023-02-01T04:32:39;2.27;;;1.70;;
18702;SDS011;9481;48.796;9.210;2023-02-01T04:35:05;2.93;;;1.93;;
18702;SDS011;9481;48.796;9.210;2023-02-01T04:37:32;1.53;;;1.40;;
18702;SDS011;9481;48.796;9.210;2023-02-01T04:39:58;1.90;;;1.50;;
18702;SDS011;9481;48.796;9.210;2023-02-01T04:42:24;2.20;;;1.80;;
18702;SDS011;9481;48.796;9.210;2023-02-01T04:44:50;2.17;;;1.70;;
18702;SDS011;9481;48.796;9.210;2023-02-01T04:47:15;3.87;;;1.90;;
18702;SDS011;9481;48.796;9.210;2023-02-01T04:49:41;2.20;;;1.53;;
18702;SDS011;9481;48.796;9.210;2023-02-01T04:52:07;3.10;;;1.87;;
18702;SDS011;9481;48.796;9.210;2023-02-01T04:54:33;2.40;;;1.83;;
18702;SDS011;9481;48.796;9.210;2023-02-01T04:56:59;2.23;;;1.80;;
18702;SDS011;9481;48.796;9.210;2023-02-01T04:59:25;1.93;;;1.70;;
18702;SDS011;9481;48.796;9.210;2023-02-01T05:01:51;2.00;;;1.80;;
18702;SDS011;9481;48.796;9.210;2023-02-01T05:04:17;2.17;;;1.70;;
18702;SDS011;9481;48.796;9.210;2023-02-01T05:06:43;1.93;;;1.73;;
18702;SDS011;9481;48.796;9.210;2023-02-01T05:09:09;3.20;;;1.60;;
18702;SDS011;9481;48.796;9.210;2023-02-01T05:11:36;1.70;;;1.50;;
18702;SDS011;9481;48.796;9.210;2023-02-01T05:14:20;3.27;;;2.17;;
18702;SDS011;9481;48.796;9.210;2023-02-01T05:16:46;2.90;;;1.60;;
18702;SDS011;9481;48.796;9.210;2023-02-01T05:19:11;1.80;;;1.60;;
18702;SDS011;9481;48.796;9.210;2023-02-01T05:21:37;3.03;;;1.60;;
18702;SDS011;9481;48.796;9.210;2023-02-01T05:24:03;2.93;;;1.80;;
18702;SDS011;9481;48.796;9.210;2023-02-01T05:26:36;2.43;;;1.53;;
18702;SDS011;9481;48.796;9.210;2023-02-01T05:29:02;2.50;;;1.57;;
18702;SDS011;9481;48.796;9.210;2023-02-01T05:31:29;2.90;;;1.53;;
18702;SDS011;9481;48.796;9.210;2023-02-01T05:33:55;1.87;;;1.67;;
18702;SDS011;9481;48.796;9.210;2023-02-01T05:36:21;1.60;;;1.43;;
18702;SDS011;9481;48.796;9.210;2023-02-01T05:38:47;2.07;;;1.40;;
18702;SDS011;9481;48.796;9.210;2023-02-01T05:41:12;3.97;;;1.70;;
18702;SDS011;9481;48.796;9.210;2023-02-01T05:43:38;1.73;;;1.37;;
18702;SDS011;9481;48.796;9.210;2023-02-01T05:46:04;2.73;;;1.20;;
18702;SDS011;9481;48.796;9.210;2023-02-01T05:48:30;1.93;;;1.40;;
18702;SDS011;9481;48.796;9.210;2023-02-01T05:50:55;1.33;;;1.23;;
18702;SDS011;9481;48.796;9.210;2023-02-01T05:53:21;2.07;;;1.40;;
18702;SDS011;9481;48.796;9.210;2023-02-01T05:55:47;3.67;;;1.40;;
18702;SDS011;9481;48.796;9.210;2023-02-01T05:58:13;1.47;;;1.20;;
18702;SDS011;9481;48.796;9.210;2023-02-01T06:00:39;1.80;;;1.23;;
18702;SDS011;9481;48.796;9.210;2023-02-01T06:03:05;1.10;;;1.00;;
18702;SDS011;9481;48.796;9.210;2023-02-01T06:05:32;2.47;;;1.20;;
18702;SDS011;9481;48.796;9.210;2023-02-01T06:07:58;4.60;;;1.30;;
18702;SDS011;9481;48.796;9.210;2023-02-01T06:10:24;3.90;;;1.60;;
18702;SDS011;9481;48.796;9.210;2023-02-01T06:12:49;1.47;;;1.33;;
18702;SDS011;9481;48.796;9.210;2023-02-01T06:15:15;2.23;;;1.30;;
18702;SDS011;9481;48.796;9.210;2023-02-01T06:17:41;1.50;;;1.30;;
18702;SDS011;9481;48.796;9.210;2023-02-01T06:20:10;1.40;;;1.20;;
18702;SDS011;9481;48.796;9.210;2023-02-01T06:22:38;3.17;;;1.70;;
18702;SDS011;9481;48.796;9.210;2023-02-01T06:25:04;3.70;;;1.97;;
18702;SDS011;9481;48.796;9.210;2023-02-01T06:27:33;1.57;;;1.47;;
18702;SDS011;9481;48.796;9.210;2023-02-01T06:29:59;2.00;;;1.63;;
18702;SDS011;9481;48.796;9.210;2023-02-01T06:32:25;3.77;;;1.77;;
18702;SDS011;9481;48.796;9.210;2023-02-01T06:34:51;1.40;;;1.30;;
18702;SDS011;9481;48.796;9.210;2023-02-01T06:37:21;1.53;;;1.40;;
18702;SDS011;9481;48.796;9.210;2023-02-01T06:39:48;3.80;;;1.50;;
18702;SDS011;9481;48.796;9.210;2023-02-01T06:42:14;2.20;;;1.37;;
18702;SDS011;9481;48.796;9.210;2023-02-01T06:44:40;1.73;;;1.30;;
18702;SDS011;9481;48.796;9.210;2023-02-01T06:47:05;3.30;;;1.50;;
18702;SDS011;9481;48.796;9.210;2023-02-01T06:49:31;3.37;;;1.57;;
18702;SDS011;9481;48.796;9.210;2023-02-01T06:51:57;2.50;;;1.90;;
18702;SDS011;9481;48.796;9.210;2023-02-01T06:54:25;2.23;;;1.43;;
18702;SDS011;9481;48.796;9.210;2023-02-01T06:56:51;2.47;;;1.60;;
18702;SDS011;9481;48.796;9.210;2023-02-01T06:59:17;3.20;;;1.60;;
18702;SDS011;9481;48.796;9.210;2023-02-01T07:01:43;1.90;;;1.30;;
18702;SDS011;9481;48.796;9.210;2023-02-01T07:04:12;2.63;;;1.70;;
18702;SDS011;9481;48.796;9.210;2023-02-01T07:06:38;2.03;;;1.60;;
18702;SDS011;9481;48.796;9.210;2023-02-01T07:09:04;4.83;;;1.60;;
18702;SDS011;9481;48.796;9.210;2023-02-01T07:11:31;4.00;;;1.57;;
18702;SDS011;9481;48.796;9.210;2023-02-01T07:13:57;2.17;;;1.50;;
18702;SDS011;9481;48.796;9.210;2023-02-01T07:16:24;2.43;;;1.80;;
18702;SDS011;9481;48.796;9.210;2023-02-01T07:18:51;1.83;;;1.50;;
18702;SDS011;9481;48.796;9.210;2023-02-01T07:21:18;2.17;;;1.30;;
18702;SDS011;9481;48.796;9.210;2023-02-01T07:23:44;3.30;;;1.80;;
18702;SDS011;9481;48.796;9.210;2023-02-01T07:26:11;2.43;;;1.50;;
18702;SDS011;9481;48.796;9.210;2023-02-01T07:28:39;2.23;;;1.70;;
18702;SDS011;9481;48.796;9.210;2023-02-01T07:31:07;1.90;;;1.23;;
18702;SDS011;9481;48.796;9.210;2023-02-01T07:33:40;1.57;;;1.20;;
18702;SDS011;9481;48.796;9.210;2023-02-01T07:36:07;2.10;;;1.40;;
18702;SDS011;9481;48.796;9.210;2023-02-01T07:38:38;1.80;;;1.10;;
18702;SDS011;9481;48.796;9.210;2023-02-01T07:41:04;3.73;;;1.70;;
18702;SDS011;9481;48.796;9.210;2023-02-01T07:43:31;3.17;;;1.40;;
18702;SDS011;9481;48.796;9.210;2023-02-01T07:46:01;2.50;;;1.57;;
18702;SDS011;9481;48.796;9.210;2023-02-01T07:48:28;1.83;;;1.37;;
18702;SDS011;9481;48.796;9.210;2023-02-01T07:51:02;2.23;;;1.53;;
18702;SDS011;9481;48.796;9.210;2023-02-01T07:53:35;2.43;;;1.60;;
18702;SDS011;9481;48.796;9.210;2023-02-01T07:56:02;2.00;;;1.20;;
18702;SDS011;9481;48.796;9.210;2023-02-01T07:58:29;2.27;;;1.33;;
18702;SDS011;9481;48.796;9.210;2023-02-01T08:00:55;3.87;;;1.30;;
18702;SDS011;9481;48.796;9.210;2023-02-01T08:03:39;2.97;;;1.50;;
18702;SDS011;9481;48.796;9.210;2023-02-01T08:06:05;2.43;;;1.47;;
18702;SDS011;9481;48.796;9.210;2023-02-01T08:08:31;2.07;;;1.40;;
18702;SDS011;9481;48.796;9.210;2023-02-01T08:11:00;4.27;;;1.50;;
18702;SDS011;9481;48.796;9.210;2023-02-01T08:13:29;2.70;;;1.50;;
18702;SDS011;9481;48.796;9.210;2023-02-01T08:15:59;2.13;;;1.50;;
18702;SDS011;9481;48.796;9.210;2023-02-01T08:18:27;3.10;;;1.17;;
18702;SDS011;9481;48.796;9.210;2023-02-01T08:20:53;3.27;;;1.60;;
18702;SDS011;9481;48.796;9.210;2023-02-01T08:23:19;2.50;;;1.50;;
18702;SDS011;9481;48.796;9.210;2023-02-01T08:25:46;2.10;;;1.43;;
18702;SDS011;9481;48.796;9.210;2023-02-01T08:28:12;2.80;;;1.40;;
18702;SDS011;9481;48.796;9.210;2023-02-01T08:30:38;2.73;;;1.60;;
18702;SDS011;9481;48.796;9.210;2023-02-01T08:33:05;4.60;;;1.70;;
18702;SDS011;9481;48.796;9.210;2023-02-01T08:35:36;2.83;;;1.50;;
18702;SDS011;9481;48.796;9.210;2023-02-01T08:38:03;3.47;;;1.60;;
18702;SDS011;9481;48.796;9.210;2023-02-01T08:40:29;1.93;;;1.57;;
18702;SDS011;9481;48.796;9.210;2023-02-01T08:42:56;2.13;;;1.40;;
18702;SDS011;9481;48.796;9.210;2023-02-01T08:45:24;5.13;;;2.00;;
18702;SDS011;9481;48.796;9.210;2023-02-01T08:47:54;3.27;;;1.40;;
18702;SDS011;9481;48.796;9.210;2023-02-01T08:50:21;2.43;;;1.30;;
18702;SDS011;9481;48.796;9.210;2023-02-01T08:52:48;3.33;;;1.40;;
18702;SDS011;9481;48.796;9.210;2023-02-01T08:55:15;2.40;;;1.60;;
18702;SDS011;9481;48.796;9.210;2023-02-01T08:57:41;1.77;;;1.53;;
18702;SDS011;9481;48.796;9.210;2023-02-01T09:00:09;3.43;;;1.50;;
18702;SDS011;9481;48.796;9.210;2023-02-01T09:02:40;3.07;;;1.80;;
18702;SDS011;9481;48.796;9.210;2023-02-01T09:05:07;4.30;;;1.43;;
18702;SDS011;9481;48.796;9.210;2023-02-01T09:07:33;2.60;;;1.80;;
18702;SDS011;9481;48.796;9.210;2023-02-01T09:09:59;6.87;;;1.50;;
18702;SDS011;9481;48.796;9.210;2023-02-01T09:12:27;3.50;;;1.50;;
18702;SDS011;9481;48.796;9.210;2023-02-01T09:14:55;4.87;;;1.90;;
18702;SDS011;9481;48.796;9.210;2023-02-01T09:17:24;5.00;;;1.70;;
18702;SDS011;9481;48.796;9.210;2023-02-01T09:19:53;3.57;;;1.67;;
18702;SDS011;9481;48.796;9.210;2023-02-01T09:22:19;4.03;;;1.50;;
18702;SDS011;9481;48.796;9.210;2023-02-01T09:24:45;3.40;;;1.70;;
18702;SDS011;9481;48.796;9.210;2023-02-01T09:27:11;6.03;;;1.47;;
18702;SDS011;9481;48.796;9.210;2023-02-01T09:29:36;3.70;;;1.43;;
18702;SDS011;9481;48.796;9.210;2023-02-01T09:32:02;3.23;;;1.53;;
18702;SDS011;9481;48.796;9.210;2023-02-01T09:34:28;3.40;;;1.60;;
18702;SDS011;9481;48.796;9.210;2023-02-01T09:36:54;4.70;;;1.80;;
18702;SDS011;9481;48.796;9.210;2023-02-01T09:39:20;4.30;;;1.50;;
18702;SDS011;9481;48.796;9.210;2023-02-01T09:41:48;4.63;;;2.13;;
18702;SDS011;9481;48.796;9.210;2023-02-01T09:44:50;4.03;;;1.43;;
18702;SDS011;9481;48.796;9.210;2023-02-01T09:47:31;3.17;;;1.60;;
18702;SDS011;9481;48.796;9.210;2023-02-01T09:50:04;3.27;;;1.43;;
18702;SDS011;9481;48.796;9.210;2023-02-01T09:55:54;3.57;;;1.57;;
18702;SDS011;9481;48.796;9.210;2023-02-01T09:58:39;3.87;;;1.50;;
18702;SDS011;9481;48.796;9.210;2023-02-01T10:01:21;5.03;;;1.87;;
18702;SDS011;9481;48.796;9.210;2023-02-01T10:03:49;4.03;;;1.70;;
18702;SDS011;9481;48.796;9.210;2023-02-01T10:09:44;5.60;;;1.80;;
18702;SDS011;9481;48.796;9.210;2023-02-01T10:20:55;5.57;;;1.90;;
18702;SDS011;9481;48.796;9.210;2023-02-01T10:26:54;4.43;;;1.90;;
18702;SDS011;9481;48.796;9.210;2023-02-01T10:29:39;3.90;;;1.70;;
18702;SDS011;9481;48.796;9.210;2023-02-01T10:32:15;6.07;;;1.67;;
18702;SDS011;9481;48.796;9.210;2023-02-01T10:34:52;7.33;;;1.90;;
18702;SDS011;9481;48.796;9.210;2023-02-01T10:37:28;6.43;;;1.83;;
18702;SDS011;9481;48.796;9.210;2023-02-01T10:39:58;8.30;;;2.00;;
18702;SDS011;9481;48.796;9.210;2023-02-01T10:42:40;8.77;;;2.07;;
18702;SDS011;9481;48.796;9.210;2023-02-01T10:45:06;6.77;;;2.40;;
18702;SDS011;9481;48.796;9.210;2023-02-01T10:47:40;8.47;;;2.13;;
18702;SDS011;9481;48.796;9.210;2023-02-01T10:50:15;7.10;;;1.80;;
18702;SDS011;9481;48.796;9.210;2023-02-01T10:56:26;5.87;;;1.70;;
18702;SDS011;9481;48.796;9.210;2023-02-01T10:59:28;7.17;;;1.90;;
18702;SDS011;9481;48.796;9.210;2023-02-01T11:01:49;9.77;;;1.83;;
18702;SDS011;9481;48.796;9.210;2023-02-01T11:04:24;8.50;;;2.43;;
18702;SDS011;9481;48.796;9.210;2023-02-01T11:07:08;10.03;;;2.30;;
18702;SDS011;9481;48.796;9.210;2023-02-01T11:09:41;7.57;;;1.87;;
18702;SDS011;9481;48.796;9.210;2023-02-01T11:12:23;8.97;;;2.03;;
18702;SDS011;9481;48.796;9.210;2023-02-01T11:14:57;7.17;;;2.30;;
18702;SDS011;9481;48.796;9.210;2023-02-01T11:17:39;4.93;;;1.73;;
18702;SDS011;9481;48.796;9.210;2023-02-01T11:20:15;9.07;;;2.83;;
18702;SDS011;9481;48.796;9.210;2023-02-01T11:23:02;6.10;;;2.03;;
18702;SDS011;9481;48.796;9.210;2023-02-01T11:25:28;8.47;;;2.10;;
18702;SDS011;9481;48.796;9.210;2023-02-01T11:27:57;10.10;;;2.07;;
18702;SDS011;9481;48.796;9.210;2023-02-01T11:30:31;10.23;;;2.50;;
18702;SDS011;9481;48.796;9.210;2023-02-01T11:33:05;10.10;;;2.27;;
18702;SDS011;9481;48.796;9.210;2023-02-01T11:35:38;7.07;;;2.27;;
18702;SDS011;9481;48.796;9.210;2023-02-01T11:43:58;11.33;;;1.90;;
18702;SDS011;9481;48.796;9.210;2023-02-01T11:46:30;7.90;;;2.07;;
18702;SDS011;9481;48.796;9.210;2023-02-01T11:49:19;8.60;;;2.20;;
18702;SDS011;9481;48.796;9.210;2023-02-01T11:55:03;6.33;;;1.90;;
18702;SDS011;9481;48.796;9.210;2023-02-01T11:57:58;7.57;;;1.90;;
18702;SDS011;9481;48.796;9.210;2023-02-01T12:01:18;5.70;;;1.70;;
18702;SDS011;9481;48.796;9.210;2023-02-01T12:07:19;7.07;;;2.27;;
18702;SDS011;9481;48.796;9.210;2023-02-01T12:21:56;10.30;;;1.90;;
18702;SDS011;9481;48.796;9.210;2023-02-01T12:25:02;6.53;;;1.70;;
18702;SDS011;9481;48.796;9.210;2023-02-01T12:36:01;5.73;;;1.87;;
18702;SDS011;9481;48.796;9.210;2023-02-01T12:41:50;4.67;;;1.70;;
18702;SDS011;9481;48.796;9.210;2023-02-01T12:47:51;5.13;;;2.03;;
18702;SDS011;9481;48.796;9.210;2023-02-01T12:50:27;7.13;;;1.73;;
18702;SDS011;9481;48.796;9.210;2023-02-01T12:53:09;6.03;;;1.67;;
18702;SDS011;9481;48.796;9.210;2023-02-01T12:55:47;5.23;;;1.53;;
18702;SDS011;9481;48.796;9.210;2023-02-01T13:01:11;14.23;;;1.93;;
18702;SDS011;9481;48.796;9.210;2023-02-01T13:04:03;5.50;;;1.70;;
18702;SDS011;9481;48.796;9.210;2023-02-01T13:06:51;12.67;;;2.93;;
18702;SDS011;9481;48.796;9.210;2023-02-01T13:09:55;4.97;;;1.70;;
18702;SDS011;9481;48.796;9.210;2023-02-01T13:12:34;9.40;;;2.30;;
18702;SDS011;9481;48.796;9.210;2023-02-01T13:17:48;9.03;;;1.90;;
18702;SDS011;9481;48.796;9.210;2023-02-01T13:20:31;7.10;;;2.03;;
18702;SDS011;9481;48.796;9.210;2023-02-01T13:23:27;6.47;;;1.90;;
18702;SDS011;9481;48.796;9.210;2023-02-01T13:25:58;6.53;;;2.13;;
18702;SDS011;9481;48.796;9.210;2023-02-01T13:28:26;9.33;;;1.93;;
18702;SDS011;9481;48.796;9.210;2023-02-01T13:34:32;7.93;;;1.53;;
18702;SDS011;9481;48.796;9.210;2023-02-01T13:43:00;5.17;;;1.50;;
18702;SDS011;9481;48.796;9.210;2023-02-01T13:45:41;6.70;;;1.87;;
18702;SDS011;9481;48.796;9.210;2023-02-01T13:48:27;8.53;;;2.77;;
18702;SDS011;9481;48.796;9.210;2023-02-01T13:51:15;8.70;;;3.13;;
18702;SDS011;9481;48.796;9.210;2023-02-01T13:54:03;16.07;;;5.30;;
18702;SDS011;9481;48.796;9.210;2023-02-01T13:56:38;12.30;;;4.30;;
18702;SDS011;9481;48.796;9.210;2023-02-01T14:26:19;6.97;;;2.10;;
18702;SDS011;9481;48.796;9.210;2023-02-01T14:29:13;9.33;;;3.10;;
18702;SDS011;9481;48.796;9.210;2023-02-01T14:32:19;7.30;;;2.20;;
18702;SDS011;9481;48.796;9.210;2023-02-01T14:34:51;7.13;;;1.67;;
18702;SDS011;9481;48.796;9.210;2023-02-01T14:37:23;5.87;;;1.70;;
18702;SDS011;9481;48.796;9.210;2023-02-01T14:39:55;6.40;;;1.83;;
18702;SDS011;9481;48.796;9.210;2023-02-01T14:47:47;6.17;;;1.50;;
18702;SDS011;9481;48.796;9.210;2023-02-01T14:50:40;7.70;;;1.80;;
18702;SDS011;9481;48.796;9.210;2023-02-01T14:55:50;4.63;;;1.43;;
18702;SDS011;9481;48.796;9.210;2023-02-01T14:58:46;5.27;;;1.70;;
18702;SDS011;9481;48.796;9.210;2023-02-01T15:01:22;6.10;;;1.60;;
18702;SDS011;9481;48.796;9.210;2023-02-01T15:12:04;5.53;;;1.60;;
18702;SDS011;9481;48.796;9.210;2023-02-01T15:14:46;4.70;;;1.30;;
18702;SDS011;9481;48.796;9.210;2023-02-01T15:17:28;10.33;;;2.50;;
18702;SDS011;9481;48.796;9.210;2023-02-01T15:20:18;10.03;;;2.20;;
18702;SDS011;9481;48.796;9.210;2023-02-01T15:22:59;10.87;;;2.03;;
18702;SDS011;9481;48.796;9.210;2023-02-01T15:28:03;5.43;;;1.67;;
18702;SDS011;9481;48.796;9.210;2023-02-01T15:30:33;10.73;;;1.73;;
18702;SDS011;9481;48.796;9.210;2023-02-01T15:33:18;6.07;;;1.90;;
18702;SDS011;9481;48.796;9.210;2023-02-01T15:35:46;6.10;;;1.90;;
18702;SDS011;9481;48.796;9.210;2023-02-01T15:38:18;8.90;;;2.17;;
18702;SDS011;9481;48.796;9.210;2023-02-01T15:41:00;7.43;;;1.60;;
18702;SDS011;9481;48.796;9.210;2023-02-01T15:46:16;5.17;;;1.40;;
18702;SDS011;9481;48.796;9.210;2023-02-01T15:48:48;8.60;;;1.77;;
18702;SDS011;9481;48.796;9.210;2023-02-01T15:51:22;7.53;;;2.27;;
18702;SDS011;9481;48.796;9.210;2023-02-01T15:56:27;6.50;;;2.00;;
18702;SDS011;9481;48.796;9.210;2023-02-01T15:59:00;11.43;;;2.10;;
18702;SDS011;9481;48.796;9.210;2023-02-01T16:01:29;5.37;;;2.00;;
18702;SDS011;9481;48.796;9.210;2023-02-01T16:06:52;7.13;;;1.93;;
18702;SDS011;9481;48.796;9.210;2023-02-01T16:09:35;7.13;;;1.90;;
18702;SDS011;9481;48.796;9.210;2023-02-01T16:12:49;5.37;;;1.73;;
18702;SDS011;9481;48.796;9.210;2023-02-01T16:15:16;9.90;;;1.90;;
18702;SDS011;9481;48.796;9.210;2023-02-01T16:17:42;6.13;;;1.67;;
18702;SDS011;9481;48.796;9.210;2023-02-01T16:20:08;6.80;;;1.60;;
18702;SDS011;9481;48.796;9.210;2023-02-01T16:22:35;3.97;;;1.80;;
18702;SDS011;9481;48.796;9.210;2023-02-01T16:25:01;8.67;;;2.10;;
18702;SDS011;9481;48.796;9.210;2023-02-01T16:27:27;10.73;;;2.70;;
18702;SDS011;9481;48.796;9.210;2023-02-01T16:29:52;8.70;;;1.87;;
18702;SDS011;9481;48.796;9.210;2023-02-01T16:32:20;8.30;;;2.00;;
18702;SDS011;9481;48.796;9.210;2023-02-01T16:34:47;6.27;;;1.70;;
18702;SDS011;9481;48.796;9.210;2023-02-01T16:37:18;6.87;;;2.23;;
18702;SDS011;9481;48.796;9.210;2023-02-01T16:39:49;7.23;;;2.40;;
18702;SDS011;9481;48.796;9.210;2023-02-01T16:42:15;5.97;;;1.90;;
18702;SDS011;9481;48.796;9.210;2023-02-01T16:44:42;8.63;;;2.37;;
18702;SDS011;9481;48.796;9.210;2023-02-01T16:47:11;10.20;;;2.20;;
18702;SDS011;9481;48.796;9.210;2023-02-01T16:49:43;6.13;;;2.13;;
18702;SDS011;9481;48.796;9.210;2023-02-01T16:52:13;9.13;;;2.60;;
18702;SDS011;9481;48.796;9.210;2023-02-01T16:54:46;9.20;;;1.70;;
18702;SDS011;9481;48.796;9.210;2023-02-01T16:57:13;5.70;;;2.20;;
18702;SDS011;9481;48.796;9.210;2023-02-01T16:59:42;8.20;;;2.27;;
18702;SDS011;9481;48.796;9.210;2023-02-01T17:02:12;7.33;;;2.20;;
18702;SDS011;9481;48.796;9.210;2023-02-01T17:04:44;5.97;;;2.40;;
18702;SDS011;9481;48.796;9.210;2023-02-01T17:07:11;6.67;;;2.80;;
18702;SDS011;9481;48.796;9.210;2023-02-01T17:09:42;7.77;;;2.50;;
18702;SDS011;9481;48.796;9.210;2023-02-01T17:12:27;7.80;;;2.80;;
18702;SDS011;9481;48.796;9.210;2023-02-01T17:14:55;8.10;;;3.03;;
18702;SDS011;9481;48.796;9.210;2023-02-01T17:17:23;9.87;;;2.30;;
18702;SDS011;9481;48.796;9.210;2023-02-01T17:20:02;11.87;;;2.27;;
18702;SDS011;9481;48.796;9.210;2023-02-01T17:22:30;9.80;;;2.77;;
18702;SDS011;9481;48.796;9.210;2023-02-01T17:24:56;6.13;;;2.37;;
18702;SDS011;9481;48.796;9.210;2023-02-01T17:27:22;12.70;;;3.30;;
18702;SDS011;9481;48.796;9.210;2023-02-01T17:29:48;9.50;;;3.10;;
18702;SDS011;9481;48.796;9.210;2023-02-01T17:32:15;12.90;;;4.07;;
18702;SDS011;9481;48.796;9.210;2023-02-01T17:34:45;8.30;;;2.97;;
18702;SDS011;9481;48.796;9.210;2023-02-01T17:37:30;11.57;;;3.27;;
18702;SDS011;9481;48.796;9.210;2023-02-01T17:39:58;11.73;;;4.37;;
18702;SDS011;9481;48.796;9.210;2023-02-01T17:42:25;10.60;;;4.17;;
18702;SDS011;9481;48.796;9.210;2023-02-01T17:44:55;16.40;;;5.77;;
18702;SDS011;9481;48.796;9.210;2023-02-01T17:47:35;15.57;;;4.57;;
18702;SDS011;9481;48.796;9.210;2023-02-01T17:50:02;10.33;;;3.20;;
18702;SDS011;9481;48.796;9.210;2023-02-01T17:52:28;11.30;;;3.90;;
18702;SDS011;9481;48.796;9.210;2023-02-01T17:54:54;10.57;;;3.83;;
18702;SDS011;9481;48.796;9.210;2023-02-01T17:57:20;7.20;;;2.70;;
18702;SDS011;9481;48.796;9.210;2023-02-01T17:59:45;8.30;;;2.70;;
18702;SDS011;9481;48.796;9.210;2023-02-01T18:02:21;5.20;;;2.70;;
18702;SDS011;9481;48.796;9.210;2023-02-01T18:04:48;7.73;;;2.47;;
18702;SDS011;9481;48.796;9.210;2023-02-01T18:07:16;10.77;;;2.70;;
18702;SDS011;9481;48.796;9.210;2023-02-01T18:09:42;8.23;;;2.00;;